Portada
METAR-TAF:

METAR-TAF

Aeropuertos :

Aeropuerto Internacional Hato

Curazao, Antillas Neerlandesas

latitud: 12-12N, longitud: 068-58W, altitud: 9 m

Observación

El informe se hizo hace 1 hora y 4 minutos, a las 05:00 UTC
Viento 10 kt del este-sureste
Temperatura 25°C
Humedad 79%
Presión 1015 hPa
Visibilidad 10 km o más

METAR: TNCC 160500Z AUTO 11010KT 9999 NSC 25/21 Q1015 NOSIG

Hora: 02:04 (06:04 UTC)

Pronóstico

El informe se hizo hace 2 horas y 34 minutos, a las 03:30 UTC
Pronóstico válido del 16 a las 06 UTC al 17 a las 06 UTC
Viento 8 kt del este
Visibilidad 10 km o más
Escasas nubes a una altura de 1800 ft
Temporalmente
del 16 a las 06 UTC al 16 a las 12 UTC
Cielo nuboso a una altura de 1400 ft

TAF: TNCC 160330Z 1606/1706 10008KT 9999 FEW018 TEMPO 1606/1612 BKN014

Observaciones y pronósticos meteorológicos de más de 4000 aeropuertos (mensajes METAR y TAF).

Los puntos amarillos y rojos representan las estaciones disponibles.

Ponga el ratón en el punto deseado para ver el nombre de la estación.

Haga clic para ver las observaciones y los pronósticos meteorológicos.

Para cambiar el mapa : haga clic en los botones verdes con una cruz de color negro para hacer un zoom, en el botón verde con un guión para alejar o en las flechas verdes para mapas adyacentes.


METAR-TAF: